sensor_id;sensor_type;location;lat;lon;timestamp;P1;durP1;ratioP1;P2;durP2;ratioP2
77798;SDS011;66989;50.426;15.352;2023-07-31T00:00:10;5.40;;;3.70;;
77798;SDS011;66989;50.426;15.352;2023-07-31T00:02:37;8.02;;;3.08;;
77798;SDS011;66989;50.426;15.352;2023-07-31T00:05:02;5.90;;;2.85;;
77798;SDS011;66989;50.426;15.352;2023-07-31T00:07:28;3.70;;;2.45;;
77798;SDS011;66989;50.426;15.352;2023-07-31T00:09:53;7.50;;;3.50;;
77798;SDS011;66989;50.426;15.352;2023-07-31T00:12:19;5.00;;;3.10;;
77798;SDS011;66989;50.426;15.352;2023-07-31T00:14:45;6.15;;;3.38;;
77798;SDS011;66989;50.426;15.352;2023-07-31T00:17:11;5.32;;;3.13;;
77798;SDS011;66989;50.426;15.352;2023-07-31T00:19:36;5.95;;;3.30;;
77798;SDS011;66989;50.426;15.352;2023-07-31T00:22:01;3.78;;;3.30;;
77798;SDS011;66989;50.426;15.352;2023-07-31T00:24:27;6.13;;;2.53;;
77798;SDS011;66989;50.426;15.352;2023-07-31T00:26:52;7.00;;;2.90;;
77798;SDS011;66989;50.426;15.352;2023-07-31T00:29:18;5.32;;;3.25;;
77798;SDS011;66989;50.426;15.352;2023-07-31T00:31:43;4.25;;;2.55;;
77798;SDS011;66989;50.426;15.352;2023-07-31T00:34:09;4.43;;;3.17;;
77798;SDS011;66989;50.426;15.352;2023-07-31T00:36:34;5.10;;;2.92;;
77798;SDS011;66989;50.426;15.352;2023-07-31T00:38:59;2.78;;;2.03;;
77798;SDS011;66989;50.426;15.352;2023-07-31T00:41:25;4.10;;;3.20;;
77798;SDS011;66989;50.426;15.352;2023-07-31T00:43:50;5.40;;;3.20;;
77798;SDS011;66989;50.426;15.352;2023-07-31T00:46:15;4.13;;;2.88;;
77798;SDS011;66989;50.426;15.352;2023-07-31T00:48:41;6.35;;;3.75;;
77798;SDS011;66989;50.426;15.352;2023-07-31T00:51:07;5.65;;;4.10;;
77798;SDS011;66989;50.426;15.352;2023-07-31T00:55:58;4.65;;;3.45;;
77798;SDS011;66989;50.426;15.352;2023-07-31T00:58:24;4.93;;;3.58;;
77798;SDS011;66989;50.426;15.352;2023-07-31T01:00:49;5.45;;;3.53;;
77798;SDS011;66989;50.426;15.352;2023-07-31T01:03:15;6.03;;;3.22;;
77798;SDS011;66989;50.426;15.352;2023-07-31T01:06:02;7.32;;;3.60;;
77798;SDS011;66989;50.426;15.352;2023-07-31T01:08:56;10.45;;;3.67;;
77798;SDS011;66989;50.426;15.352;2023-07-31T01:13:54;6.18;;;3.60;;
77798;SDS011;66989;50.426;15.352;2023-07-31T01:16:20;7.68;;;3.67;;
77798;SDS011;66989;50.426;15.352;2023-07-31T01:18:46;5.70;;;4.05;;
77798;SDS011;66989;50.426;15.352;2023-07-31T01:21:36;6.90;;;3.43;;
77798;SDS011;66989;50.426;15.352;2023-07-31T01:26:49;5.88;;;3.67;;
77798;SDS011;66989;50.426;15.352;2023-07-31T01:31:58;9.13;;;3.58;;
77798;SDS011;66989;50.426;15.352;2023-07-31T01:34:26;8.27;;;4.18;;
77798;SDS011;66989;50.426;15.352;2023-07-31T01:36:54;7.85;;;2.97;;
77798;SDS011;66989;50.426;15.352;2023-07-31T01:39:21;7.53;;;4.07;;
77798;SDS011;66989;50.426;15.352;2023-07-31T01:41:47;8.40;;;3.97;;
77798;SDS011;66989;50.426;15.352;2023-07-31T01:44:12;9.13;;;3.93;;
77798;SDS011;66989;50.426;15.352;2023-07-31T01:46:37;7.97;;;3.58;;
77798;SDS011;66989;50.426;15.352;2023-07-31T01:49:03;4.57;;;2.77;;
77798;SDS011;66989;50.426;15.352;2023-07-31T01:51:30;5.88;;;2.53;;
77798;SDS011;66989;50.426;15.352;2023-07-31T01:53:58;8.02;;;3.53;;
77798;SDS011;66989;50.426;15.352;2023-07-31T01:56:24;5.72;;;2.80;;
77798;SDS011;66989;50.426;15.352;2023-07-31T01:58:50;4.27;;;2.37;;
77798;SDS011;66989;50.426;15.352;2023-07-31T02:01:15;3.83;;;3.03;;
77798;SDS011;66989;50.426;15.352;2023-07-31T02:03:40;10.00;;;2.67;;
77798;SDS011;66989;50.426;15.352;2023-07-31T02:06:07;7.68;;;3.10;;
77798;SDS011;66989;50.426;15.352;2023-07-31T02:08:32;7.20;;;3.13;;
77798;SDS011;66989;50.426;15.352;2023-07-31T02:10:57;6.57;;;2.65;;
77798;SDS011;66989;50.426;15.352;2023-07-31T02:13:23;9.20;;;3.10;;
77798;SDS011;66989;50.426;15.352;2023-07-31T02:15:48;6.22;;;2.15;;
77798;SDS011;66989;50.426;15.352;2023-07-31T02:18:13;7.07;;;2.33;;
77798;SDS011;66989;50.426;15.352;2023-07-31T02:20:39;7.75;;;2.67;;
77798;SDS011;66989;50.426;15.352;2023-07-31T02:23:04;4.60;;;2.75;;
77798;SDS011;66989;50.426;15.352;2023-07-31T02:25:30;9.55;;;2.42;;
77798;SDS011;66989;50.426;15.352;2023-07-31T02:27:55;9.50;;;1.80;;
77798;SDS011;66989;50.426;15.352;2023-07-31T02:30:21;7.32;;;2.63;;
77798;SDS011;66989;50.426;15.352;2023-07-31T02:32:46;9.65;;;2.90;;
77798;SDS011;66989;50.426;15.352;2023-07-31T02:35:11;5.27;;;2.37;;
77798;SDS011;66989;50.426;15.352;2023-07-31T02:37:40;7.57;;;2.78;;
77798;SDS011;66989;50.426;15.352;2023-07-31T02:40:06;5.93;;;3.15;;
77798;SDS011;66989;50.426;15.352;2023-07-31T02:42:31;5.68;;;2.75;;
77798;SDS011;66989;50.426;15.352;2023-07-31T02:44:57;8.40;;;2.70;;
77798;SDS011;66989;50.426;15.352;2023-07-31T02:47:22;5.43;;;3.20;;
77798;SDS011;66989;50.426;15.352;2023-07-31T02:49:47;4.47;;;2.23;;
77798;SDS011;66989;50.426;15.352;2023-07-31T02:52:13;7.35;;;2.40;;
77798;SDS011;66989;50.426;15.352;2023-07-31T02:54:38;4.57;;;2.83;;
77798;SDS011;66989;50.426;15.352;2023-07-31T02:57:04;5.37;;;2.87;;
77798;SDS011;66989;50.426;15.352;2023-07-31T02:59:30;8.25;;;3.67;;
77798;SDS011;66989;50.426;15.352;2023-07-31T03:01:55;9.48;;;3.50;;
77798;SDS011;66989;50.426;15.352;2023-07-31T03:04:20;7.38;;;2.08;;
77798;SDS011;66989;50.426;15.352;2023-07-31T03:06:46;12.45;;;3.38;;
77798;SDS011;66989;50.426;15.352;2023-07-31T03:09:11;7.07;;;3.17;;
77798;SDS011;66989;50.426;15.352;2023-07-31T03:11:37;3.72;;;2.15;;
77798;SDS011;66989;50.426;15.352;2023-07-31T03:14:02;3.30;;;2.13;;
77798;SDS011;66989;50.426;15.352;2023-07-31T03:16:27;2.53;;;1.52;;
77798;SDS011;66989;50.426;15.352;2023-07-31T03:18:53;5.47;;;2.63;;
77798;SDS011;66989;50.426;15.352;2023-07-31T03:21:19;13.85;;;3.63;;
77798;SDS011;66989;50.426;15.352;2023-07-31T03:23:44;9.68;;;2.65;;
77798;SDS011;66989;50.426;15.352;2023-07-31T03:26:10;7.82;;;2.78;;
77798;SDS011;66989;50.426;15.352;2023-07-31T03:28:35;6.85;;;3.47;;
77798;SDS011;66989;50.426;15.352;2023-07-31T03:31:01;8.02;;;3.47;;
77798;SDS011;66989;50.426;15.352;2023-07-31T03:33:26;4.35;;;2.63;;
77798;SDS011;66989;50.426;15.352;2023-07-31T03:35:52;7.07;;;3.20;;
77798;SDS011;66989;50.426;15.352;2023-07-31T03:38:17;4.60;;;2.38;;
77798;SDS011;66989;50.426;15.352;2023-07-31T03:40:43;4.35;;;2.65;;
77798;SDS011;66989;50.426;15.352;2023-07-31T03:43:08;8.10;;;3.25;;
77798;SDS011;66989;50.426;15.352;2023-07-31T03:45:34;4.90;;;2.28;;
77798;SDS011;66989;50.426;15.352;2023-07-31T03:47:59;3.45;;;2.05;;
77798;SDS011;66989;50.426;15.352;2023-07-31T03:50:25;3.65;;;1.65;;
77798;SDS011;66989;50.426;15.352;2023-07-31T03:52:50;7.13;;;2.42;;
77798;SDS011;66989;50.426;15.352;2023-07-31T03:55:16;5.65;;;2.25;;
77798;SDS011;66989;50.426;15.352;2023-07-31T03:57:41;5.30;;;2.60;;
77798;SDS011;66989;50.426;15.352;2023-07-31T04:00:06;6.68;;;2.63;;
77798;SDS011;66989;50.426;15.352;2023-07-31T04:02:32;4.65;;;2.17;;
77798;SDS011;66989;50.426;15.352;2023-07-31T04:04:58;6.28;;;2.17;;
77798;SDS011;66989;50.426;15.352;2023-07-31T04:07:23;4.72;;;1.73;;
77798;SDS011;66989;50.426;15.352;2023-07-31T04:09:48;2.47;;;1.70;;
77798;SDS011;66989;50.426;15.352;2023-07-31T04:12:14;6.82;;;2.63;;
77798;SDS011;66989;50.426;15.352;2023-07-31T04:14:39;3.22;;;1.98;;
77798;SDS011;66989;50.426;15.352;2023-07-31T04:17:05;3.30;;;2.45;;
77798;SDS011;66989;50.426;15.352;2023-07-31T04:19:30;11.32;;;3.38;;
77798;SDS011;66989;50.426;15.352;2023-07-31T04:21:55;5.93;;;2.80;;
77798;SDS011;66989;50.426;15.352;2023-07-31T04:24:21;2.38;;;1.42;;
77798;SDS011;66989;50.426;15.352;2023-07-31T04:26:52;6.45;;;2.05;;
77798;SDS011;66989;50.426;15.352;2023-07-31T04:29:18;3.33;;;2.15;;
77798;SDS011;66989;50.426;15.352;2023-07-31T04:31:44;7.05;;;2.53;;
77798;SDS011;66989;50.426;15.352;2023-07-31T04:34:09;3.60;;;1.83;;
77798;SDS011;66989;50.426;15.352;2023-07-31T04:36:36;3.22;;;2.17;;
77798;SDS011;66989;50.426;15.352;2023-07-31T04:39:01;3.20;;;2.38;;
77798;SDS011;66989;50.426;15.352;2023-07-31T04:41:27;4.22;;;2.33;;
77798;SDS011;66989;50.426;15.352;2023-07-31T04:43:53;6.00;;;2.42;;
77798;SDS011;66989;50.426;15.352;2023-07-31T04:46:18;3.25;;;2.67;;
77798;SDS011;66989;50.426;15.352;2023-07-31T04:48:43;4.03;;;2.95;;
77798;SDS011;66989;50.426;15.352;2023-07-31T04:51:09;3.85;;;1.73;;
77798;SDS011;66989;50.426;15.352;2023-07-31T04:53:35;5.93;;;3.95;;
77798;SDS011;66989;50.426;15.352;2023-07-31T04:56:00;4.22;;;2.55;;
77798;SDS011;66989;50.426;15.352;2023-07-31T04:58:26;3.25;;;2.33;;
77798;SDS011;66989;50.426;15.352;2023-07-31T05:00:51;7.05;;;3.75;;
77798;SDS011;66989;50.426;15.352;2023-07-31T05:03:17;5.35;;;2.65;;
77798;SDS011;66989;50.426;15.352;2023-07-31T05:05:42;8.23;;;4.00;;
77798;SDS011;66989;50.426;15.352;2023-07-31T05:08:08;6.82;;;4.13;;
77798;SDS011;66989;50.426;15.352;2023-07-31T05:10:33;5.28;;;3.47;;
77798;SDS011;66989;50.426;15.352;2023-07-31T05:12:58;6.97;;;3.25;;
77798;SDS011;66989;50.426;15.352;2023-07-31T05:15:24;5.87;;;2.90;;
77798;SDS011;66989;50.426;15.352;2023-07-31T05:17:49;10.88;;;3.22;;
77798;SDS011;66989;50.426;15.352;2023-07-31T05:20:15;5.15;;;3.47;;
77798;SDS011;66989;50.426;15.352;2023-07-31T05:22:40;7.43;;;3.92;;
77798;SDS011;66989;50.426;15.352;2023-07-31T05:25:06;5.20;;;3.67;;
77798;SDS011;66989;50.426;15.352;2023-07-31T05:27:31;4.50;;;3.50;;
77798;SDS011;66989;50.426;15.352;2023-07-31T05:29:57;7.65;;;3.72;;
77798;SDS011;66989;50.426;15.352;2023-07-31T05:32:22;6.13;;;2.72;;
77798;SDS011;66989;50.426;15.352;2023-07-31T05:34:50;5.70;;;3.78;;
77798;SDS011;66989;50.426;15.352;2023-07-31T05:37:17;9.27;;;2.85;;
77798;SDS011;66989;50.426;15.352;2023-07-31T05:39:42;3.78;;;3.20;;
77798;SDS011;66989;50.426;15.352;2023-07-31T05:42:08;5.43;;;2.75;;
77798;SDS011;66989;50.426;15.352;2023-07-31T05:44:33;6.97;;;3.10;;
77798;SDS011;66989;50.426;15.352;2023-07-31T05:46:58;3.97;;;2.63;;
77798;SDS011;66989;50.426;15.352;2023-07-31T05:49:24;6.50;;;2.40;;
77798;SDS011;66989;50.426;15.352;2023-07-31T05:51:49;7.45;;;3.28;;
77798;SDS011;66989;50.426;15.352;2023-07-31T05:54:14;3.78;;;2.50;;
77798;SDS011;66989;50.426;15.352;2023-07-31T05:56:40;3.30;;;2.50;;
77798;SDS011;66989;50.426;15.352;2023-07-31T05:59:05;2.90;;;2.25;;
77798;SDS011;66989;50.426;15.352;2023-07-31T06:01:31;6.10;;;3.10;;
77798;SDS011;66989;50.426;15.352;2023-07-31T06:03:58;7.45;;;2.83;;
77798;SDS011;66989;50.426;15.352;2023-07-31T06:06:23;6.40;;;2.23;;
77798;SDS011;66989;50.426;15.352;2023-07-31T06:08:48;5.60;;;2.92;;
77798;SDS011;66989;50.426;15.352;2023-07-31T06:11:14;6.22;;;2.75;;
77798;SDS011;66989;50.426;15.352;2023-07-31T06:13:40;3.53;;;1.67;;
77798;SDS011;66989;50.426;15.352;2023-07-31T06:16:05;7.25;;;2.05;;
77798;SDS011;66989;50.426;15.352;2023-07-31T06:18:33;9.98;;;2.75;;
77798;SDS011;66989;50.426;15.352;2023-07-31T06:20:59;6.78;;;2.30;;
77798;SDS011;66989;50.426;15.352;2023-07-31T06:23:24;5.47;;;2.63;;
77798;SDS011;66989;50.426;15.352;2023-07-31T06:25:49;4.97;;;1.63;;
77798;SDS011;66989;50.426;15.352;2023-07-31T06:28:15;3.27;;;1.80;;
77798;SDS011;66989;50.426;15.352;2023-07-31T06:30:40;2.53;;;2.05;;
77798;SDS011;66989;50.426;15.352;2023-07-31T06:33:06;5.32;;;1.90;;
77798;SDS011;66989;50.426;15.352;2023-07-31T06:35:31;5.55;;;1.52;;
77798;SDS011;66989;50.426;15.352;2023-07-31T06:37:56;5.50;;;1.73;;
77798;SDS011;66989;50.426;15.352;2023-07-31T06:40:22;3.67;;;2.30;;
77798;SDS011;66989;50.426;15.352;2023-07-31T06:42:48;3.95;;;1.88;;
77798;SDS011;66989;50.426;15.352;2023-07-31T06:45:13;5.78;;;1.92;;
77798;SDS011;66989;50.426;15.352;2023-07-31T06:47:39;3.00;;;2.13;;
77798;SDS011;66989;50.426;15.352;2023-07-31T06:50:04;7.80;;;1.88;;
77798;SDS011;66989;50.426;15.352;2023-07-31T06:52:30;4.47;;;2.33;;
77798;SDS011;66989;50.426;15.352;2023-07-31T06:55:02;5.82;;;2.38;;
77798;SDS011;66989;50.426;15.352;2023-07-31T06:57:29;4.53;;;2.15;;
77798;SDS011;66989;50.426;15.352;2023-07-31T06:59:54;8.15;;;2.38;;
77798;SDS011;66989;50.426;15.352;2023-07-31T07:02:20;5.13;;;2.30;;
77798;SDS011;66989;50.426;15.352;2023-07-31T07:04:45;6.97;;;2.25;;
77798;SDS011;66989;50.426;15.352;2023-07-31T07:07:11;5.28;;;1.92;;
77798;SDS011;66989;50.426;15.352;2023-07-31T07:09:36;5.93;;;2.17;;
77798;SDS011;66989;50.426;15.352;2023-07-31T07:12:02;6.60;;;1.27;;
77798;SDS011;66989;50.426;15.352;2023-07-31T07:14:27;4.57;;;2.20;;
77798;SDS011;66989;50.426;15.352;2023-07-31T07:16:52;4.93;;;1.73;;
77798;SDS011;66989;50.426;15.352;2023-07-31T07:19:18;3.33;;;1.70;;
77798;SDS011;66989;50.426;15.352;2023-07-31T07:21:43;3.20;;;1.33;;
77798;SDS011;66989;50.426;15.352;2023-07-31T07:24:08;4.30;;;1.48;;
77798;SDS011;66989;50.426;15.352;2023-07-31T07:26:34;4.83;;;0.93;;
77798;SDS011;66989;50.426;15.352;2023-07-31T07:28:59;5.17;;;2.27;;
77798;SDS011;66989;50.426;15.352;2023-07-31T07:31:27;3.17;;;1.90;;
77798;SDS011;66989;50.426;15.352;2023-07-31T07:33:53;6.20;;;1.63;;
77798;SDS011;66989;50.426;15.352;2023-07-31T07:36:19;4.75;;;1.45;;
77798;SDS011;66989;50.426;15.352;2023-07-31T07:38:44;5.80;;;1.38;;
77798;SDS011;66989;50.426;15.352;2023-07-31T07:41:10;5.57;;;1.17;;
77798;SDS011;66989;50.426;15.352;2023-07-31T07:43:35;4.88;;;1.60;;
77798;SDS011;66989;50.426;15.352;2023-07-31T07:46:00;6.32;;;2.00;;
77798;SDS011;66989;50.426;15.352;2023-07-31T07:48:26;4.72;;;1.45;;
77798;SDS011;66989;50.426;15.352;2023-07-31T07:50:51;3.20;;;1.92;;
77798;SDS011;66989;50.426;15.352;2023-07-31T07:53:17;3.90;;;1.70;;
77798;SDS011;66989;50.426;15.352;2023-07-31T07:55:42;4.87;;;0.77;;
77798;SDS011;66989;50.426;15.352;2023-07-31T07:58:07;2.58;;;1.02;;
77798;SDS011;66989;50.426;15.352;2023-07-31T08:00:33;2.15;;;1.25;;
77798;SDS011;66989;50.426;15.352;2023-07-31T08:02:58;2.23;;;1.03;;
77798;SDS011;66989;50.426;15.352;2023-07-31T08:05:24;3.42;;;1.27;;
77798;SDS011;66989;50.426;15.352;2023-07-31T08:07:49;5.03;;;1.33;;
77798;SDS011;66989;50.426;15.352;2023-07-31T08:10:15;4.33;;;0.90;;
77798;SDS011;66989;50.426;15.352;2023-07-31T08:12:40;4.40;;;1.27;;
77798;SDS011;66989;50.426;15.352;2023-07-31T08:15:06;4.03;;;2.45;;
77798;SDS011;66989;50.426;15.352;2023-07-31T08:17:31;6.82;;;1.25;;
77798;SDS011;66989;50.426;15.352;2023-07-31T08:19:57;3.45;;;1.90;;
77798;SDS011;66989;50.426;15.352;2023-07-31T08:22:23;5.78;;;1.42;;
77798;SDS011;66989;50.426;15.352;2023-07-31T08:24:49;4.18;;;1.83;;
77798;SDS011;66989;50.426;15.352;2023-07-31T08:27:14;7.10;;;1.60;;
77798;SDS011;66989;50.426;15.352;2023-07-31T08:29:39;3.63;;;1.52;;
77798;SDS011;66989;50.426;15.352;2023-07-31T08:32:05;5.13;;;1.70;;
77798;SDS011;66989;50.426;15.352;2023-07-31T08:34:31;3.15;;;1.40;;
77798;SDS011;66989;50.426;15.352;2023-07-31T08:36:56;2.97;;;1.77;;
77798;SDS011;66989;50.426;15.352;2023-07-31T08:39:21;4.25;;;1.77;;
77798;SDS011;66989;50.426;15.352;2023-07-31T08:41:47;2.73;;;1.93;;
77798;SDS011;66989;50.426;15.352;2023-07-31T08:44:12;3.15;;;1.77;;
77798;SDS011;66989;50.426;15.352;2023-07-31T08:46:40;8.27;;;4.13;;
77798;SDS011;66989;50.426;15.352;2023-07-31T08:49:06;3.50;;;1.75;;
77798;SDS011;66989;50.426;15.352;2023-07-31T08:51:35;6.40;;;2.97;;
77798;SDS011;66989;50.426;15.352;2023-07-31T08:54:01;6.25;;;1.40;;
77798;SDS011;66989;50.426;15.352;2023-07-31T08:56:29;6.07;;;1.27;;
77798;SDS011;66989;50.426;15.352;2023-07-31T08:58:56;4.05;;;1.60;;
77798;SDS011;66989;50.426;15.352;2023-07-31T09:01:23;4.53;;;1.75;;
77798;SDS011;66989;50.426;15.352;2023-07-31T09:03:49;3.95;;;1.08;;
77798;SDS011;66989;50.426;15.352;2023-07-31T09:06:17;3.45;;;1.42;;
77798;SDS011;66989;50.426;15.352;2023-07-31T09:08:44;4.78;;;0.98;;
77798;SDS011;66989;50.426;15.352;2023-07-31T09:11:10;3.83;;;1.58;;
77798;SDS011;66989;50.426;15.352;2023-07-31T09:13:37;4.45;;;1.13;;
77798;SDS011;66989;50.426;15.352;2023-07-31T09:16:05;3.47;;;1.10;;
77798;SDS011;66989;50.426;15.352;2023-07-31T09:18:30;6.65;;;1.15;;
77798;SDS011;66989;50.426;15.352;2023-07-31T09:21:05;2.55;;;1.00;;
77798;SDS011;66989;50.426;15.352;2023-07-31T09:23:44;3.35;;;1.05;;
77798;SDS011;66989;50.426;15.352;2023-07-31T09:26:10;5.38;;;1.20;;
77798;SDS011;66989;50.426;15.352;2023-07-31T09:28:36;3.50;;;1.55;;
77798;SDS011;66989;50.426;15.352;2023-07-31T09:31:02;3.70;;;0.82;;
77798;SDS011;66989;50.426;15.352;2023-07-31T09:33:27;3.05;;;1.23;;
77798;SDS011;66989;50.426;15.352;2023-07-31T09:35:53;2.67;;;0.97;;
77798;SDS011;66989;50.426;15.352;2023-07-31T09:38:18;4.70;;;1.05;;
77798;SDS011;66989;50.426;15.352;2023-07-31T09:40:44;3.55;;;1.25;;
77798;SDS011;66989;50.426;15.352;2023-07-31T09:43:18;2.22;;;1.50;;
77798;SDS011;66989;50.426;15.352;2023-07-31T09:45:45;5.40;;;1.73;;
77798;SDS011;66989;50.426;15.352;2023-07-31T09:48:17;8.25;;;2.55;;
77798;SDS011;66989;50.426;15.352;2023-07-31T09:50:44;4.97;;;2.22;;
77798;SDS011;66989;50.426;15.352;2023-07-31T09:53:11;6.55;;;1.98;;
77798;SDS011;66989;50.426;15.352;2023-07-31T09:55:37;5.07;;;1.23;;
77798;SDS011;66989;50.426;15.352;2023-07-31T09:58:03;3.03;;;1.30;;
77798;SDS011;66989;50.426;15.352;2023-07-31T10:00:30;4.35;;;1.25;;
77798;SDS011;66989;50.426;15.352;2023-07-31T10:03:00;3.40;;;0.73;;
77798;SDS011;66989;50.426;15.352;2023-07-31T10:05:30;3.58;;;1.13;;
77798;SDS011;66989;50.426;15.352;2023-07-31T10:07:58;5.20;;;1.30;;
77798;SDS011;66989;50.426;15.352;2023-07-31T10:10:25;2.67;;;0.82;;
77798;SDS011;66989;50.426;15.352;2023-07-31T10:12:51;3.33;;;1.27;;
77798;SDS011;66989;50.426;15.352;2023-07-31T10:15:18;3.40;;;1.33;;
77798;SDS011;66989;50.426;15.352;2023-07-31T10:17:45;5.10;;;2.78;;
77798;SDS011;66989;50.426;15.352;2023-07-31T10:20:13;5.93;;;1.55;;
77798;SDS011;66989;50.426;15.352;2023-07-31T10:22:41;3.45;;;1.85;;
77798;SDS011;66989;50.426;15.352;2023-07-31T10:25:07;3.92;;;1.23;;
77798;SDS011;66989;50.426;15.352;2023-07-31T10:30:00;8.05;;;0.98;;
77798;SDS011;66989;50.426;15.352;2023-07-31T10:32:28;4.93;;;1.42;;
77798;SDS011;66989;50.426;15.352;2023-07-31T10:34:54;5.95;;;1.10;;
77798;SDS011;66989;50.426;15.352;2023-07-31T10:37:35;2.33;;;0.68;;
77798;SDS011;66989;50.426;15.352;2023-07-31T10:40:06;5.72;;;1.20;;
77798;SDS011;66989;50.426;15.352;2023-07-31T10:42:36;3.70;;;1.52;;
77798;SDS011;66989;50.426;15.352;2023-07-31T10:45:07;3.85;;;1.20;;
77798;SDS011;66989;50.426;15.352;2023-07-31T10:47:44;4.45;;;0.90;;
77798;SDS011;66989;50.426;15.352;2023-07-31T10:50:21;2.63;;;1.52;;
77798;SDS011;66989;50.426;15.352;2023-07-31T10:52:49;4.28;;;0.88;;
77798;SDS011;66989;50.426;15.352;2023-07-31T10:55:29;2.83;;;1.35;;
77798;SDS011;66989;50.426;15.352;2023-07-31T10:57:57;4.43;;;1.15;;
77798;SDS011;66989;50.426;15.352;2023-07-31T11:00:31;4.10;;;1.23;;
77798;SDS011;66989;50.426;15.352;2023-07-31T11:03:00;3.10;;;1.52;;
77798;SDS011;66989;50.426;15.352;2023-07-31T11:08:20;5.65;;;1.13;;
77798;SDS011;66989;50.426;15.352;2023-07-31T11:10:47;3.10;;;1.35;;
77798;SDS011;66989;50.426;15.352;2023-07-31T11:13:14;3.80;;;1.58;;
77798;SDS011;66989;50.426;15.352;2023-07-31T11:15:40;7.90;;;1.60;;
77798;SDS011;66989;50.426;15.352;2023-07-31T11:18:05;4.50;;;0.98;;
77798;SDS011;66989;50.426;15.352;2023-07-31T11:20:33;5.35;;;1.65;;
77798;SDS011;66989;50.426;15.352;2023-07-31T11:23:00;5.20;;;1.73;;
77798;SDS011;66989;50.426;15.352;2023-07-31T11:25:28;7.07;;;1.83;;
77798;SDS011;66989;50.426;15.352;2023-07-31T11:27:55;4.55;;;1.80;;
77798;SDS011;66989;50.426;15.352;2023-07-31T11:30:21;7.18;;;1.38;;
77798;SDS011;66989;50.426;15.352;2023-07-31T11:32:47;2.33;;;1.10;;
77798;SDS011;66989;50.426;15.352;2023-07-31T11:35:12;4.32;;;2.13;;
77798;SDS011;66989;50.426;15.352;2023-07-31T11:37:38;2.95;;;1.95;;
77798;SDS011;66989;50.426;15.352;2023-07-31T11:40:08;3.70;;;1.70;;
77798;SDS011;66989;50.426;15.352;2023-07-31T11:42:37;3.65;;;0.90;;
77798;SDS011;66989;50.426;15.352;2023-07-31T11:45:03;3.75;;;1.80;;
77798;SDS011;66989;50.426;15.352;2023-07-31T11:47:29;5.85;;;1.67;;
77798;SDS011;66989;50.426;15.352;2023-07-31T11:49:57;3.80;;;0.95;;
77798;SDS011;66989;50.426;15.352;2023-07-31T11:52:23;2.25;;;0.80;;
77798;SDS011;66989;50.426;15.352;2023-07-31T11:54:49;4.75;;;1.83;;
77798;SDS011;66989;50.426;15.352;2023-07-31T11:57:15;2.58;;;1.08;;
77798;SDS011;66989;50.426;15.352;2023-07-31T11:59:41;2.63;;;1.55;;
77798;SDS011;66989;50.426;15.352;2023-07-31T12:02:08;3.72;;;1.08;;
77798;SDS011;66989;50.426;15.352;2023-07-31T12:04:33;2.63;;;1.13;;
77798;SDS011;66989;50.426;15.352;2023-07-31T12:07:00;3.63;;;1.08;;
77798;SDS011;66989;50.426;15.352;2023-07-31T12:09:25;2.53;;;0.93;;
77798;SDS011;66989;50.426;15.352;2023-07-31T12:11:51;3.35;;;1.23;;
77798;SDS011;66989;50.426;15.352;2023-07-31T12:14:20;3.80;;;1.27;;
77798;SDS011;66989;50.426;15.352;2023-07-31T12:16:53;3.92;;;1.20;;
77798;SDS011;66989;50.426;15.352;2023-07-31T12:19:27;2.88;;;1.67;;
77798;SDS011;66989;50.426;15.352;2023-07-31T12:21:54;3.45;;;1.17;;
77798;SDS011;66989;50.426;15.352;2023-07-31T12:26:46;2.83;;;1.37;;
77798;SDS011;66989;50.426;15.352;2023-07-31T12:31:37;5.23;;;1.27;;
77798;SDS011;66989;50.426;15.352;2023-07-31T12:34:14;3.88;;;1.42;;
77798;SDS011;66989;50.426;15.352;2023-07-31T12:36:42;2.38;;;1.30;;
77798;SDS011;66989;50.426;15.352;2023-07-31T12:39:08;3.90;;;0.73;;
77798;SDS011;66989;50.426;15.352;2023-07-31T12:41:33;2.45;;;1.35;;
77798;SDS011;66989;50.426;15.352;2023-07-31T12:43:58;4.35;;;1.08;;
77798;SDS011;66989;50.426;15.352;2023-07-31T12:46:24;3.30;;;0.90;;
77798;SDS011;66989;50.426;15.352;2023-07-31T12:48:49;2.58;;;1.23;;
77798;SDS011;66989;50.426;15.352;2023-07-31T12:51:14;3.67;;;1.42;;
77798;SDS011;66989;50.426;15.352;2023-07-31T12:53:40;3.05;;;1.25;;
77798;SDS011;66989;50.426;15.352;2023-07-31T12:56:05;2.58;;;0.85;;
77798;SDS011;66989;50.426;15.352;2023-07-31T12:58:31;3.70;;;2.17;;
77798;SDS011;66989;50.426;15.352;2023-07-31T13:00:56;3.80;;;1.15;;
77798;SDS011;66989;50.426;15.352;2023-07-31T13:03:22;5.20;;;1.48;;
77798;SDS011;66989;50.426;15.352;2023-07-31T13:05:47;3.50;;;1.30;;
77798;SDS011;66989;50.426;15.352;2023-07-31T13:08:13;1.83;;;1.10;;
77798;SDS011;66989;50.426;15.352;2023-07-31T13:10:40;4.47;;;1.42;;
77798;SDS011;66989;50.426;15.352;2023-07-31T13:13:06;3.20;;;0.88;;
77798;SDS011;66989;50.426;15.352;2023-07-31T13:15:31;4.30;;;1.52;;
77798;SDS011;66989;50.426;15.352;2023-07-31T13:17:56;3.65;;;1.23;;
77798;SDS011;66989;50.426;15.352;2023-07-31T13:20:22;3.67;;;1.45;;
77798;SDS011;66989;50.426;15.352;2023-07-31T13:22:47;2.50;;;0.98;;
77798;SDS011;66989;50.426;15.352;2023-07-31T13:25:13;2.92;;;0.88;;
77798;SDS011;66989;50.426;15.352;2023-07-31T13:27:38;3.13;;;1.23;;
77798;SDS011;66989;50.426;15.352;2023-07-31T13:30:04;2.78;;;1.65;;
77798;SDS011;66989;50.426;15.352;2023-07-31T13:32:30;2.72;;;0.85;;
77798;SDS011;66989;50.426;15.352;2023-07-31T13:34:55;2.22;;;1.05;;
77798;SDS011;66989;50.426;15.352;2023-07-31T13:37:20;3.88;;;0.88;;
77798;SDS011;66989;50.426;15.352;2023-07-31T13:39:46;2.08;;;0.88;;
77798;SDS011;66989;50.426;15.352;2023-07-31T13:42:13;2.70;;;0.77;;
77798;SDS011;66989;50.426;15.352;2023-07-31T13:44:38;5.00;;;1.02;;
77798;SDS011;66989;50.426;15.352;2023-07-31T13:49:30;4.05;;;0.63;;
77798;SDS011;66989;50.426;15.352;2023-07-31T13:51:56;3.17;;;0.80;;
77798;SDS011;66989;50.426;15.352;2023-07-31T13:54:23;3.08;;;0.95;;
77798;SDS011;66989;50.426;15.352;2023-07-31T13:56:49;1.90;;;1.05;;
77798;SDS011;66989;50.426;15.352;2023-07-31T13:59:14;4.18;;;1.08;;
77798;SDS011;66989;50.426;15.352;2023-07-31T14:01:41;3.53;;;1.17;;
77798;SDS011;66989;50.426;15.352;2023-07-31T14:04:07;2.10;;;1.00;;
77798;SDS011;66989;50.426;15.352;2023-07-31T14:06:33;2.20;;;1.20;;
77798;SDS011;66989;50.426;15.352;2023-07-31T14:08:58;2.88;;;2.03;;
77798;SDS011;66989;50.426;15.352;2023-07-31T14:11:23;4.40;;;1.20;;
77798;SDS011;66989;50.426;15.352;2023-07-31T14:13:49;3.38;;;1.20;;
77798;SDS011;66989;50.426;15.352;2023-07-31T14:16:15;2.22;;;0.68;;
77798;SDS011;66989;50.426;15.352;2023-07-31T14:18:41;6.28;;;0.85;;
77798;SDS011;66989;50.426;15.352;2023-07-31T14:21:06;2.60;;;0.57;;
77798;SDS011;66989;50.426;15.352;2023-07-31T14:23:32;1.27;;;0.75;;
77798;SDS011;66989;50.426;15.352;2023-07-31T14:25:57;1.73;;;1.00;;
77798;SDS011;66989;50.426;15.352;2023-07-31T14:28:23;3.45;;;0.88;;
77798;SDS011;66989;50.426;15.352;2023-07-31T14:30:48;1.73;;;0.43;;
77798;SDS011;66989;50.426;15.352;2023-07-31T14:33:13;1.85;;;0.98;;
77798;SDS011;66989;50.426;15.352;2023-07-31T14:35:39;2.92;;;0.85;;
77798;SDS011;66989;50.426;15.352;2023-07-31T14:38:05;3.45;;;1.27;;
77798;SDS011;66989;50.426;15.352;2023-07-31T14:40:30;3.78;;;1.23;;
77798;SDS011;66989;50.426;15.352;2023-07-31T14:42:55;1.95;;;1.08;;
77798;SDS011;66989;50.426;15.352;2023-07-31T14:45:21;2.10;;;1.08;;
77798;SDS011;66989;50.426;15.352;2023-07-31T14:47:46;4.00;;;0.97;;
77798;SDS011;66989;50.426;15.352;2023-07-31T14:50:11;2.38;;;0.80;;